Time;durP1;ratioP1;P1;durP2;ratioP2;P2;SDS_P1;SDS_P2;PMS_P1;PMS_P2;Temp;Humidity;BMP_temperature;BMP_pressure;BME280_temperature;BME280_humidity;BME280_pressure;Samples;Min_cycle;Max_cycle;Signal;HPM_P1;HPM_P2
2024/03/25 00:00:15;;;;;;;3.58;2.60;;;;;;;6.55;100.00;97684.13;4996833;28;20064;-71
2024/03/25 00:02:42;;;;;;;3.97;2.60;;;;;;;6.56;100.00;97688.38;5011972;28;20050;-70
2024/03/25 00:05:09;;;;;;;3.00;2.70;;;;;;;6.45;100.00;97704.63;4979087;28;20106;-71
2024/03/25 00:07:37;;;;;;;3.90;2.70;;;;;;;6.45;100.00;97709.91;5011142;28;20480;-70
2024/03/25 00:10:03;;;;;;;2.67;2.47;;;;;;;6.33;100.00;97725.34;5011162;28;20226;-71
2024/03/25 00:12:30;;;;;;;3.72;2.70;;;;;;;6.15;100.00;97737.19;4994409;28;20091;-70
2024/03/25 00:14:56;;;;;;;1.50;1.38;;;;;;;6.08;100.00;97737.06;4995105;28;20427;-70
2024/03/25 00:17:21;;;;;;;1.02;1.02;;;;;;;5.95;100.00;97743.94;5011377;28;20106;-70
2024/03/25 00:19:50;;;;;;;0.80;0.80;;;;;;;5.94;100.00;97745.75;5013502;28;20064;-70
2024/03/25 00:22:17;;;;;;;1.08;1.08;;;;;;;5.97;100.00;97753.28;5013393;28;20052;-71
2024/03/25 00:24:43;;;;;;;0.88;0.88;;;;;;;5.90;100.00;97762.91;5013528;28;20119;-71
2024/03/25 00:27:09;;;;;;;0.90;0.90;;;;;;;5.84;100.00;97760.97;5030290;28;20067;-71
2024/03/25 00:29:34;;;;;;;1.40;0.80;;;;;;;5.84;100.00;97770.66;5049398;28;20186;-70
2024/03/25 00:32:00;;;;;;;0.80;0.75;;;;;;;5.79;100.00;97771.16;5018597;28;20045;-69
2024/03/25 00:34:26;;;;;;;0.70;0.70;;;;;;;5.76;100.00;97768.88;5050909;28;20049;-69
2024/03/25 00:36:52;;;;;;;0.70;0.70;;;;;;;5.68;100.00;97766.28;5034642;28;20143;-70
2024/03/25 00:39:19;;;;;;;0.70;0.70;;;;;;;5.58;100.00;97763.03;5051523;28;20068;-70
2024/03/25 00:41:45;;;;;;;0.60;0.60;;;;;;;5.56;100.00;97769.47;5034009;28;20073;-70
2024/03/25 00:44:11;;;;;;;0.60;0.60;;;;;;;5.62;100.00;97771.41;5033982;28;20040;-70
2024/03/25 00:46:37;;;;;;;0.50;0.50;;;;;;;5.55;100.00;97776.53;5033991;28;20203;-69
2024/03/25 00:49:02;;;;;;;0.60;0.60;;;;;;;5.32;100.00;97799.34;5033908;28;20470;-70
2024/03/25 00:51:28;;;;;;;0.60;0.60;;;;;;;5.39;100.00;97799.47;5034137;28;20048;-70
2024/03/25 00:53:54;;;;;;;0.65;0.65;;;;;;;5.36;100.00;97790.13;5034604;28;20052;-70
2024/03/25 00:56:20;;;;;;;0.50;0.50;;;;;;;5.38;100.00;97787.31;5051453;28;20040;-69
2024/03/25 00:58:46;;;;;;;0.70;0.70;;;;;;;5.35;100.00;97803.44;5050638;28;20041;-69
2024/03/25 01:01:12;;;;;;;0.73;0.70;;;;;;;5.35;100.00;97817.41;5049135;28;20138;-70
2024/03/25 01:03:38;;;;;;;0.60;0.60;;;;;;;5.28;100.00;97816.47;5016142;28;20601;-69
2024/03/25 01:06:04;;;;;;;0.60;0.60;;;;;;;5.33;100.00;97827.31;5032671;28;20164;-69
2024/03/25 01:08:30;;;;;;;0.70;0.70;;;;;;;5.30;100.00;97824.19;5016370;28;20048;-70
2024/03/25 01:10:55;;;;;;;0.60;0.60;;;;;;;5.35;100.00;97835.84;5033105;28;20044;-70
2024/03/25 01:13:24;;;;;;;0.50;0.50;;;;;;;5.31;100.00;97829.28;5000824;28;20053;-69
2024/03/25 01:15:49;;;;;;;0.60;0.60;;;;;;;5.38;100.00;97839.97;5016513;28;20464;-69
2024/03/25 01:18:15;;;;;;;0.60;0.60;;;;;;;5.38;100.00;97825.00;5016489;28;20083;-70
2024/03/25 01:20:41;;;;;;;0.60;0.60;;;;;;;5.30;100.00;97830.28;5016231;28;20126;-70
2024/03/25 01:23:07;;;;;;;0.60;0.60;;;;;;;5.20;100.00;97832.28;5016397;28;20049;-70
2024/03/25 01:25:32;;;;;;;1.42;0.60;;;;;;;5.26;100.00;97842.13;5032628;28;20056;-69
2024/03/25 01:27:58;;;;;;;0.60;0.60;;;;;;;5.29;100.00;97848.88;5015805;28;20052;-69
2024/03/25 01:30:24;;;;;;;0.50;0.50;;;;;;;5.25;100.00;97835.22;4999687;28;20051;-70
2024/03/25 01:32:50;;;;;;;1.37;0.70;;;;;;;5.30;100.00;97832.91;5028093;28;20059;-69
2024/03/25 01:35:15;;;;;;;0.90;0.90;;;;;;;5.19;100.00;97841.16;5050673;28;20105;-69
2024/03/25 01:37:42;;;;;;;0.70;0.60;;;;;;;5.19;100.00;97835.91;5016732;28;20047;-69
2024/03/25 01:40:10;;;;;;;0.60;0.60;;;;;;;5.03;100.00;97820.13;5066260;28;20115;-70
2024/03/25 01:42:37;;;;;;;0.60;0.60;;;;;;;4.91;100.00;97832.00;5049697;28;20465;-69
2024/03/25 01:45:03;;;;;;;0.60;0.60;;;;;;;5.01;100.00;97845.81;5016937;28;20045;-69
2024/03/25 01:47:32;;;;;;;0.57;0.57;;;;;;;5.09;100.00;97856.28;5049808;28;20127;-69
2024/03/25 01:49:59;;;;;;;0.60;0.60;;;;;;;5.06;100.00;97875.88;5017815;28;20151;-71
2024/03/25 01:52:25;;;;;;;0.50;0.50;;;;;;;5.08;100.00;97884.44;5050284;28;20511;-69
2024/03/25 01:54:53;;;;;;;0.60;0.60;;;;;;;5.15;100.00;97880.13;5016958;28;20095;-69
2024/03/25 01:57:20;;;;;;;0.60;0.60;;;;;;;5.15;100.00;97880.13;5050681;28;20452;-70
2024/03/25 01:59:46;;;;;;;0.60;0.60;;;;;;;5.08;100.00;97887.06;5050607;28;20132;-70
2024/03/25 02:02:12;;;;;;;0.73;0.63;;;;;;;5.11;100.00;97878.00;5049389;28;20047;-70
2024/03/25 02:04:39;;;;;;;0.60;0.60;;;;;;;5.15;100.00;97882.75;5016659;28;20097;-69
2024/03/25 02:07:07;;;;;;;0.60;0.60;;;;;;;5.04;100.00;97885.72;5032915;28;20139;-70
2024/03/25 02:09:34;;;;;;;0.60;0.60;;;;;;;4.94;100.00;97881.63;5016207;28;20060;-69
2024/03/25 02:12:01;;;;;;;0.60;0.60;;;;;;;4.90;100.00;97889.06;5049897;28;20057;-69
2024/03/25 02:14:27;;;;;;;0.60;0.60;;;;;;;4.90;100.00;97896.13;5051973;28;20044;-69
2024/03/25 02:16:53;;;;;;;0.60;0.60;;;;;;;4.88;100.00;97905.97;5053851;28;20394;-70
2024/03/25 02:19:21;;;;;;;0.60;0.60;;;;;;;5.07;100.00;97903.81;5053853;28;20048;-70
2024/03/25 02:21:47;;;;;;;0.87;0.87;;;;;;;5.07;100.00;97908.28;5053545;28;20139;-71
2024/03/25 02:24:14;;;;;;;0.70;0.70;;;;;;;5.13;100.00;97920.78;5054749;28;20148;-69
2024/03/25 02:26:39;;;;;;;0.70;0.70;;;;;;;5.00;100.00;97920.44;5047492;28;20459;-69
2024/03/25 02:29:05;;;;;;;0.60;0.60;;;;;;;5.02;100.00;97926.34;5043476;28;20076;-70
2024/03/25 02:31:31;;;;;;;0.70;0.70;;;;;;;4.94;100.00;97921.09;5013177;28;20496;-69
2024/03/25 02:33:57;;;;;;;0.70;0.70;;;;;;;4.99;100.00;97924.06;5031948;28;20514;-70
2024/03/25 02:36:23;;;;;;;0.50;0.50;;;;;;;5.00;100.00;97925.69;5031531;28;20049;-69
2024/03/25 02:38:49;;;;;;;0.70;0.70;;;;;;;4.92;100.00;97938.88;4996907;28;20179;-68
2024/03/25 02:41:15;;;;;;;0.63;0.63;;;;;;;4.81;100.00;97941.81;5030262;28;20658;-68
2024/03/25 02:43:41;;;;;;;1.50;0.60;;;;;;;4.73;100.00;97942.63;5031345;28;20041;-71
2024/03/25 02:46:07;;;;;;;0.70;0.70;;;;;;;4.70;100.00;97944.75;5015792;28;20045;-70
2024/03/25 02:48:32;;;;;;;0.60;0.60;;;;;;;4.73;100.00;97954.94;5032556;28;20045;-69
2024/03/25 02:50:58;;;;;;;0.60;0.60;;;;;;;4.77;100.00;97961.50;5046943;28;20051;-70
2024/03/25 02:53:24;;;;;;;2.53;0.73;;;;;;;4.83;100.00;97959.06;5036110;28;20072;-69
2024/03/25 02:55:50;;;;;;;0.80;0.70;;;;;;;4.78;100.00;97952.66;5052391;28;20518;-69
2024/03/25 02:58:15;;;;;;;0.70;0.70;;;;;;;4.72;100.00;97946.22;5035158;28;20057;-70
2024/03/25 03:00:41;;;;;;;0.80;0.80;;;;;;;4.84;100.00;97967.78;5032802;28;20056;-69
2024/03/25 03:03:08;;;;;;;0.80;0.80;;;;;;;4.87;100.00;97954.31;5052615;28;20113;-70
2024/03/25 03:05:35;;;;;;;0.70;0.70;;;;;;;4.89;100.00;97957.56;5052503;28;20076;-72
2024/03/25 03:08:00;;;;;;;1.03;1.03;;;;;;;4.85;100.00;97967.63;5052542;28;20392;-71
2024/03/25 03:10:26;;;;;;;0.80;0.80;;;;;;;4.86;100.00;97968.41;5019241;28;20474;-70
2024/03/25 03:12:52;;;;;;;0.70;0.70;;;;;;;4.90;100.00;97986.38;5035236;28;20585;-70
2024/03/25 03:15:18;;;;;;;0.70;0.70;;;;;;;4.91;100.00;97985.38;5035745;28;20076;-71
2024/03/25 03:17:44;;;;;;;1.17;0.70;;;;;;;4.93;100.00;97974.69;5069076;28;20041;-70
2024/03/25 03:20:11;;;;;;;1.33;0.70;;;;;;;4.94;100.00;97978.97;5002875;28;20045;-70
2024/03/25 03:22:37;;;;;;;0.77;0.77;;;;;;;4.91;100.00;97988.00;5068877;28;20527;-71
2024/03/25 03:25:03;;;;;;;0.90;0.80;;;;;;;4.92;100.00;97999.34;5019310;28;20107;-72
2024/03/25 03:27:31;;;;;;;1.10;0.90;;;;;;;4.92;100.00;98002.78;5054189;28;20537;-70
2024/03/25 03:29:58;;;;;;;0.70;0.70;;;;;;;4.97;100.00;98008.41;5020143;28;20044;-71
2024/03/25 03:32:27;;;;;;;1.73;0.70;;;;;;;4.96;100.00;98006.75;5001543;28;20131;-71
2024/03/25 03:34:53;;;;;;;0.70;0.70;;;;;;;4.94;100.00;98010.53;5019141;28;20052;-71
2024/03/25 03:37:19;;;;;;;0.70;0.70;;;;;;;4.96;100.00;98017.28;5035801;28;20381;-70
2024/03/25 03:39:45;;;;;;;0.80;0.80;;;;;;;4.96;100.00;98014.66;5019034;28;20609;-70
2024/03/25 03:42:10;;;;;;;1.17;1.07;;;;;;;4.97;100.00;98018.91;5051802;28;20138;-72
2024/03/25 03:44:36;;;;;;;0.80;0.80;;;;;;;4.99;100.00;98024.84;5051447;28;20044;-71
2024/03/25 03:47:02;;;;;;;0.80;0.80;;;;;;;5.08;100.00;98021.25;5035217;28;20501;-70
2024/03/25 03:49:28;;;;;;;1.00;0.90;;;;;;;5.13;100.00;98026.00;5018604;28;20506;-69
2024/03/25 03:51:54;;;;;;;0.80;0.80;;;;;;;5.10;100.00;98031.59;5051719;28;20131;-74
2024/03/25 03:54:20;;;;;;;0.80;0.80;;;;;;;5.07;100.00;98024.84;5019092;28;20067;-73
2024/03/25 03:56:45;;;;;;;2.77;0.90;;;;;;;5.07;100.00;98038.00;5002513;28;20186;-68
2024/03/25 03:59:12;;;;;;;0.80;0.80;;;;;;;5.10;100.00;98042.13;5057491;28;20051;-72
2024/03/25 04:01:38;;;;;;;0.90;0.90;;;;;;;5.10;100.00;98050.81;5062671;28;20044;-70
2024/03/25 04:04:05;;;;;;;1.48;0.80;;;;;;;5.08;100.00;98060.72;5024487;28;20121;-69
2024/03/25 04:06:31;;;;;;;2.72;0.80;;;;;;;5.08;100.00;98065.97;5040705;28;20054;-71
2024/03/25 04:08:57;;;;;;;1.20;1.10;;;;;;;5.16;100.00;98052.81;5040387;28;20215;-70
2024/03/25 04:11:23;;;;;;;1.10;1.03;;;;;;;5.24;100.00;98055.44;5090010;28;20060;-69
2024/03/25 04:13:48;;;;;;;1.17;0.93;;;;;;;5.24;100.00;98063.34;5056614;28;20052;-69
2024/03/25 04:16:14;;;;;;;1.58;0.90;;;;;;;5.26;100.00;98063.19;5023808;28;20039;-70
2024/03/25 04:18:42;;;;;;;1.40;0.80;;;;;;;5.28;100.00;98069.13;5039991;28;20094;-70
2024/03/25 04:21:12;;;;;;;1.20;1.00;;;;;;;5.44;100.00;98074.41;5039765;28;20047;-70
2024/03/25 04:23:39;;;;;;;0.90;0.90;;;;;;;5.43;100.00;98080.63;5056762;28;20150;-74
2024/03/25 04:26:07;;;;;;;1.77;1.00;;;;;;;5.55;100.00;98081.94;5074483;28;20044;-70
2024/03/25 04:28:33;;;;;;;2.08;0.88;;;;;;;5.51;100.00;98095.59;5075039;28;20063;-70
2024/03/25 04:30:59;;;;;;;0.90;0.90;;;;;;;5.51;100.00;98095.59;5057555;28;20044;-68
2024/03/25 04:33:25;;;;;;;1.73;0.80;;;;;;;5.59;100.00;98104.34;5091110;28;20112;-69
2024/03/25 04:35:51;;;;;;;1.45;1.35;;;;;;;5.61;100.00;98117.34;5049416;28;20075;-70
2024/03/25 04:38:17;;;;;;;3.03;1.40;;;;;;;5.66;100.00;98101.91;5017327;28;20490;-69
2024/03/25 04:40:46;;;;;;;0.95;0.95;;;;;;;5.67;100.00;98116.69;5018189;28;20053;-69
2024/03/25 04:43:12;;;;;;;2.40;0.90;;;;;;;5.68;100.00;98119.16;5051044;28;20048;-69
2024/03/25 04:45:38;;;;;;;1.73;0.95;;;;;;;5.74;100.00;98125.56;5051510;28;20048;-71
2024/03/25 04:48:04;;;;;;;0.80;0.70;;;;;;;5.65;100.00;98130.03;5051109;28;20109;-71
2024/03/25 04:50:30;;;;;;;1.08;0.80;;;;;;;5.73;100.00;98127.41;5034449;28;20333;-70
2024/03/25 04:52:56;;;;;;;1.40;0.90;;;;;;;5.74;100.00;98133.47;5033888;28;20055;-70
2024/03/25 04:55:22;;;;;;;3.97;1.13;;;;;;;5.76;100.00;98142.88;5033315;28;20605;-70
2024/03/25 04:57:48;;;;;;;1.67;1.05;;;;;;;5.72;100.00;98130.19;5048156;28;20159;-70
2024/03/25 05:00:14;;;;;;;0.90;0.80;;;;;;;5.71;100.00;98145.16;5001272;28;20078;-70
2024/03/25 05:02:40;;;;;;;1.00;0.85;;;;;;;5.77;100.00;98160.31;4984405;28;20523;-71
2024/03/25 05:05:07;;;;;;;1.48;1.38;;;;;;;5.86;100.00;98162.00;4998820;28;20060;-70
2024/03/25 05:07:34;;;;;;;0.85;0.85;;;;;;;5.97;100.00;98163.47;5016789;28;20395;-70
2024/03/25 05:10:00;;;;;;;1.50;0.88;;;;;;;5.94;100.00;98176.97;5016225;28;20584;-70
2024/03/25 05:12:30;;;;;;;1.17;1.00;;;;;;;5.91;100.00;98161.50;5017377;28;20056;-70
2024/03/25 05:14:57;;;;;;;0.80;0.80;;;;;;;5.99;100.00;98174.69;4985606;28;20053;-70
2024/03/25 05:17:23;;;;;;;1.10;1.00;;;;;;;6.02;100.00;98185.72;5016517;28;20153;-70
2024/03/25 05:19:49;;;;;;;1.23;1.10;;;;;;;5.94;100.00;98188.34;5016318;28;20080;-70
2024/03/25 05:22:15;;;;;;;1.20;0.90;;;;;;;6.06;100.00;98191.47;5016283;28;20049;-70
2024/03/25 05:24:41;;;;;;;1.20;1.10;;;;;;;6.14;100.00;98187.03;5016663;28;20033;-71
2024/03/25 05:27:07;;;;;;;1.58;1.10;;;;;;;6.23;100.00;98187.84;5016638;28;20407;-70
2024/03/25 05:29:33;;;;;;;1.67;1.00;;;;;;;6.36;100.00;98199.56;4999730;28;20057;-70
2024/03/25 05:32:02;;;;;;;1.42;1.00;;;;;;;6.50;100.00;98198.84;5016189;28;20102;-70
2024/03/25 05:34:28;;;;;;;1.25;1.17;;;;;;;6.51;100.00;98197.88;5017059;28;20064;-70
2024/03/25 05:36:55;;;;;;;2.13;1.60;;;;;;;6.47;100.00;98203.66;5017430;28;20131;-70
2024/03/25 05:39:21;;;;;;;1.35;1.25;;;;;;;6.43;100.00;98195.25;5033570;28;20053;-70
2024/03/25 05:41:48;;;;;;;1.20;1.10;;;;;;;6.45;100.00;98201.19;5032514;28;20052;-70
2024/03/25 05:44:14;;;;;;;1.10;1.00;;;;;;;6.47;100.00;98207.09;5016154;28;20044;-70
2024/03/25 05:46:40;;;;;;;1.00;1.00;;;;;;;6.39;100.00;98204.50;4991293;28;20061;-71
2024/03/25 05:49:06;;;;;;;1.17;1.05;;;;;;;6.37;100.00;98203.00;5009842;28;20045;-69
2024/03/25 05:51:33;;;;;;;1.42;1.30;;;;;;;6.39;100.00;98209.75;5027031;28;20053;-70
2024/03/25 05:54:00;;;;;;;2.10;1.23;;;;;;;6.49;100.00;98210.41;5011326;28;20391;-70
2024/03/25 05:56:30;;;;;;;1.50;0.90;;;;;;;6.57;100.00;98220.94;4997427;28;20167;-69
2024/03/25 05:58:57;;;;;;;3.40;1.20;;;;;;;6.76;100.00;98212.63;5027840;28;20038;-68
2024/03/25 06:01:23;;;;;;;1.15;1.02;;;;;;;6.81;100.00;98220.06;5012498;28;20107;-67
2024/03/25 06:03:49;;;;;;;2.78;1.17;;;;;;;6.79;100.00;98214.97;5032063;28;20057;-67
2024/03/25 06:06:15;;;;;;;1.60;1.40;;;;;;;6.86;100.00;98213.28;5026375;28;20483;-67
2024/03/25 06:08:41;;;;;;;1.40;1.20;;;;;;;7.10;100.00;98227.41;5019997;28;20051;-67
2024/03/25 06:11:06;;;;;;;2.83;1.10;;;;;;;7.36;100.00;98220.88;5019496;28;20041;-68
2024/03/25 06:13:32;;;;;;;1.63;1.20;;;;;;;7.53;100.00;98221.59;5020274;28;20121;-67
2024/03/25 06:15:59;;;;;;;1.55;1.30;;;;;;;7.76;100.00;98233.03;5020378;28;20202;-67
2024/03/25 06:18:25;;;;;;;1.40;1.30;;;;;;;7.84;100.00;98227.69;5003226;28;20052;-67
2024/03/25 06:20:51;;;;;;;1.30;1.20;;;;;;;8.11;100.00;98227.16;4980271;28;20058;-67
2024/03/25 06:23:23;;;;;;;1.55;1.20;;;;;;;8.51;100.00;98234.81;4996459;28;20064;-69
2024/03/25 06:25:53;;;;;;;1.40;1.30;;;;;;;8.84;100.00;98225.53;4979975;28;20058;-68
2024/03/25 06:28:20;;;;;;;2.80;1.00;;;;;;;9.01;100.00;98234.97;4996872;28;20497;-68
2024/03/25 06:36:15;;;;;;;1.60;1.30;;;;;;;9.02;100.00;98223.38;4999306;28;20056;-68
2024/03/25 06:38:41;;;;;;;1.30;1.20;;;;;;;9.20;100.00;98244.19;4983304;28;20037;-68
2024/03/25 06:41:07;;;;;;;1.20;1.10;;;;;;;9.50;100.00;98240.53;4999741;28;20136;-68
2024/03/25 06:43:33;;;;;;;1.20;1.10;;;;;;;9.73;100.00;98246.50;4999530;28;20475;-67
2024/03/25 06:45:59;;;;;;;2.03;1.30;;;;;;;9.68;100.00;98252.38;5028851;28;20061;-68
2024/03/25 06:48:25;;;;;;;1.35;1.00;;;;;;;9.79;100.00;98259.81;5028647;28;20084;-68
2024/03/25 06:50:58;;;;;;;1.00;1.00;;;;;;;10.20;100.00;98268.06;5032344;28;20130;-68
2024/03/25 06:53:24;;;;;;;1.10;1.00;;;;;;;10.51;100.00;98260.63;5019064;28;20041;-68
2024/03/25 06:55:57;;;;;;;0.80;0.80;;;;;;;10.85;100.00;98267.84;5018234;28;20057;-68
2024/03/25 06:58:25;;;;;;;1.35;1.10;;;;;;;10.76;100.00;98261.03;5002322;28;20356;-69
2024/03/25 07:00:52;;;;;;;1.67;1.30;;;;;;;10.81;100.00;98263.94;4985110;28;20118;-68
2024/03/25 07:03:20;;;;;;;1.90;1.55;;;;;;;10.56;100.00;98286.59;4999695;28;20452;-67
2024/03/25 07:05:52;;;;;;;1.95;1.50;;;;;;;10.65;100.00;98277.47;4986199;28;20045;-74
2024/03/25 07:08:22;;;;;;;1.63;1.15;;;;;;;10.84;100.00;98282.94;4987555;28;20091;-68
2024/03/25 07:10:49;;;;;;;1.23;1.13;;;;;;;10.98;100.00;98292.66;5018797;28;20231;-67
2024/03/25 07:13:41;;;;;;;1.52;1.40;;;;;;;11.00;100.00;98290.63;4985416;28;20116;-68
2024/03/25 07:16:20;;;;;;;2.08;1.08;;;;;;;11.09;100.00;98297.44;4990031;28;20080;-68
2024/03/25 07:19:05;;;;;;;1.52;1.10;;;;;;;11.68;100.00;98282.72;5042629;28;20049;-68
2024/03/25 07:21:45;;;;;;;1.48;1.20;;;;;;;12.19;100.00;98300.88;5011018;28;20440;-67
2024/03/25 07:24:11;;;;;;;1.52;1.05;;;;;;;12.39;100.00;98307.91;4997654;28;20038;-72
2024/03/25 07:26:39;;;;;;;0.90;0.90;;;;;;;12.62;100.00;98307.53;4982916;28;20064;-68
2024/03/25 07:29:05;;;;;;;1.90;1.00;;;;;;;12.54;100.00;98302.41;4998744;28;20041;-67
2024/03/25 07:31:31;;;;;;;1.55;0.90;;;;;;;12.41;100.00;98310.38;5014827;28;20053;-69
2024/03/25 07:33:57;;;;;;;1.15;0.80;;;;;;;12.14;100.00;98313.97;4998332;28;20045;-68
2024/03/25 07:36:22;;;;;;;1.38;1.20;;;;;;;12.19;100.00;98315.03;4982408;28;20052;-67
2024/03/25 07:38:48;;;;;;;1.85;1.73;;;;;;;12.59;100.00;98318.59;4998534;28;20049;-68
2024/03/25 07:41:14;;;;;;;1.10;1.00;;;;;;;12.85;100.00;98322.13;5031436;28;20057;-69
2024/03/25 07:43:40;;;;;;;1.10;1.00;;;;;;;12.96;100.00;98326.00;4998605;28;20053;-69
2024/03/25 07:46:07;;;;;;;0.80;0.80;;;;;;;12.86;100.00;98329.06;4998499;28;20080;-67
2024/03/25 07:48:33;;;;;;;1.50;0.90;;;;;;;12.70;100.00;98326.00;4997426;28;20554;-68
2024/03/25 07:50:59;;;;;;;0.80;0.80;;;;;;;12.55;100.00;98339.47;4970248;28;20052;-68
2024/03/25 07:53:25;;;;;;;1.95;0.98;;;;;;;12.43;100.00;98342.94;5019557;28;20048;-68
2024/03/25 07:55:51;;;;;;;1.35;0.90;;;;;;;12.35;100.00;98330.63;5019994;28;20067;-69
2024/03/25 07:58:17;;;;;;;1.70;0.90;;;;;;;12.35;100.00;98340.44;5036637;28;20040;-81
2024/03/25 08:00:43;;;;;;;1.60;0.90;;;;;;;12.45;100.00;98348.88;5031658;28;20173;-68
2024/03/25 08:03:09;;;;;;;2.00;0.98;;;;;;;12.54;100.00;98343.19;5012487;28;20055;-68
2024/03/25 08:05:35;;;;;;;1.73;0.90;;;;;;;12.59;100.00;98343.38;5047054;28;20032;-69
2024/03/25 08:08:01;;;;;;;1.27;0.90;;;;;;;12.63;100.00;98352.63;5017217;28;20045;-68
2024/03/25 08:10:26;;;;;;;2.13;0.95;;;;;;;12.69;100.00;98354.47;5021076;28;20044;-68
2024/03/25 08:12:52;;;;;;;1.15;0.90;;;;;;;12.65;100.00;98347.09;5056211;28;20061;-67
2024/03/25 08:15:19;;;;;;;1.05;0.95;;;;;;;12.65;100.00;98350.56;5019689;28;20059;-68
2024/03/25 08:17:45;;;;;;;1.30;1.20;;;;;;;12.71;100.00;98351.59;5035789;28;20044;-67
2024/03/25 08:20:12;;;;;;;1.80;1.35;;;;;;;13.21;100.00;98346.53;5051319;28;20416;-67
2024/03/25 08:22:38;;;;;;;1.85;1.13;;;;;;;14.84;91.27;98353.16;4999469;28;20069;-68
2024/03/25 08:25:04;;;;;;;3.08;1.20;;;;;;;15.78;82.30;98354.63;5018168;28;20083;-67
2024/03/25 08:27:30;;;;;;;1.85;1.10;;;;;;;16.20;73.50;98352.91;5018486;28;20033;-67
2024/03/25 08:29:57;;;;;;;1.33;1.20;;;;;;;16.69;67.64;98358.91;5018124;28;20099;-67
2024/03/25 08:32:26;;;;;;;0.80;0.80;;;;;;;17.16;66.51;98361.72;5034346;28;20072;-68
2024/03/25 08:34:52;;;;;;;2.03;1.10;;;;;;;17.71;61.70;98358.50;4995053;28;20057;-69
2024/03/25 08:37:19;;;;;;;1.95;1.40;;;;;;;18.52;55.43;98347.63;4990652;28;20042;-68
2024/03/25 08:39:46;;;;;;;1.20;1.10;;;;;;;18.70;52.50;98362.75;4974430;28;20461;-68
2024/03/25 08:42:13;;;;;;;2.25;1.08;;;;;;;18.55;54.55;98359.75;4975156;28;20101;-68
2024/03/25 08:44:39;;;;;;;1.30;0.70;;;;;;;18.36;53.74;98359.09;4961849;28;20496;-71
2024/03/25 08:47:05;;;;;;;1.10;1.00;;;;;;;18.37;53.84;98363.44;4994211;28;20053;-68
2024/03/25 08:49:30;;;;;;;1.27;1.10;;;;;;;18.71;50.76;98361.69;4994449;28;20514;-68
2024/03/25 08:51:56;;;;;;;3.72;1.27;;;;;;;18.85;48.65;98365.72;4977703;28;20608;-78
2024/03/25 08:54:22;;;;;;;1.70;1.00;;;;;;;18.69;47.26;98364.63;4994575;28;20042;-68
2024/03/25 08:56:48;;;;;;;2.28;1.60;;;;;;;19.93;43.87;98369.66;4994216;28;20057;-68
2024/03/25 08:59:13;;;;;;;3.58;1.77;;;;;;;21.22;38.53;98375.00;4977566;28;20192;-68
2024/03/25 09:01:39;;;;;;;1.83;0.95;;;;;;;21.24;37.54;98372.06;4961486;28;20441;-68
2024/03/25 09:04:05;;;;;;;3.97;3.55;;;;;;;21.89;37.21;98377.19;4977537;28;20538;-68
2024/03/25 09:06:31;;;;;;;3.65;1.52;;;;;;;22.57;32.89;98375.09;4977408;28;20054;-68
2024/03/25 09:11:41;;;;;;;5.38;2.20;;;;;;;22.71;33.14;98378.16;4993477;28;20096;-69
2024/03/25 09:14:06;;;;;;;2.10;1.50;;;;;;;22.67;33.26;98388.69;4977708;28;20073;-68
2024/03/25 09:16:32;;;;;;;2.08;1.00;;;;;;;22.93;31.82;98392.28;4974817;28;20048;-68
2024/03/25 09:18:58;;;;;;;3.78;3.58;;;;;;;23.38;31.53;98394.28;5043231;28;20061;-68
2024/03/25 09:21:24;;;;;;;2.33;1.13;;;;;;;23.60;27.66;98398.38;5033745;28;20040;-68
2024/03/25 09:23:50;;;;;;;3.88;3.67;;;;;;;23.49;29.08;98395.91;5017429;28;20392;-68
2024/03/25 09:26:16;;;;;;;3.10;1.20;;;;;;;23.45;28.68;98395.63;5033971;28;20045;-68
2024/03/25 09:28:42;;;;;;;2.25;1.88;;;;;;;23.44;29.28;98398.59;5050622;28;20565;-68
2024/03/25 09:31:08;;;;;;;3.85;1.00;;;;;;;23.02;29.00;98402.31;5033749;28;20036;-69
2024/03/25 09:33:33;;;;;;;3.30;2.15;;;;;;;22.83;29.82;98397.69;5033964;28;20112;-68
2024/03/25 09:36:00;;;;;;;4.40;4.00;;;;;;;25.25;27.91;98393.50;5017568;28;20052;-69
2024/03/25 09:38:27;;;;;;;2.45;1.40;;;;;;;26.54;24.31;98389.88;5034049;28;20351;-69
2024/03/25 09:40:53;;;;;;;3.72;1.30;;;;;;;26.21;24.45;98389.69;5050246;28;20199;-69
2024/03/25 09:43:24;;;;;;;4.50;1.25;;;;;;;24.85;24.97;98397.25;5017696;28;20108;-69
2024/03/25 09:45:52;;;;;;;2.47;1.05;;;;;;;23.53;27.31;98386.97;4994950;28;20136;-68
2024/03/25 09:48:19;;;;;;;2.60;1.20;;;;;;;22.43;28.32;98379.38;5013932;28;20045;-67
2024/03/25 09:50:45;;;;;;;2.65;2.30;;;;;;;21.70;29.86;98390.25;5033357;28;20041;-68
2024/03/25 09:53:11;;;;;;;3.65;3.35;;;;;;;23.85;28.04;98392.91;5033685;28;20047;-68
2024/03/25 09:55:36;;;;;;;3.53;1.25;;;;;;;24.19;26.69;98396.66;5033702;28;20040;-69
2024/03/25 09:58:04;;;;;;;1.88;1.20;;;;;;;24.20;27.06;98398.28;5033709;28;20151;-70
2024/03/25 10:00:30;;;;;;;3.47;1.10;;;;;;;23.72;27.32;98404.31;5033600;28;20113;-68
2024/03/25 10:02:56;;;;;;;1.65;1.05;;;;;;;22.93;27.63;98401.22;5033538;28;20045;-68
2024/03/25 10:05:22;;;;;;;1.65;1.40;;;;;;;22.64;28.38;98396.53;5033484;28;20347;-79
2024/03/25 10:07:48;;;;;;;3.20;2.85;;;;;;;23.51;27.67;98399.16;5033595;28;20047;-68
2024/03/25 10:10:19;;;;;;;2.22;1.40;;;;;;;25.02;25.46;98394.97;5051358;28;20386;-69
2024/03/25 10:12:46;;;;;;;1.42;1.20;;;;;;;24.89;25.34;98396.41;5017158;28;20057;-68
2024/03/25 10:15:18;;;;;;;1.20;1.00;;;;;;;24.53;25.59;98407.69;5017688;28;20049;-69
2024/03/25 10:17:44;;;;;;;2.45;1.08;;;;;;;23.83;26.21;98394.28;5001845;28;20131;-69
2024/03/25 10:20:14;;;;;;;3.63;1.20;;;;;;;22.92;27.15;98396.06;5001268;28;20045;-68
2024/03/25 10:22:44;;;;;;;3.63;2.30;;;;;;;23.10;28.19;98393.69;5001139;28;20136;-68
2024/03/25 10:25:24;;;;;;;1.42;1.20;;;;;;;22.84;28.04;98385.75;5034452;28;20549;-68
2024/03/25 10:28:00;;;;;;;2.40;2.20;;;;;;;23.44;27.54;98388.59;5017227;28;20139;-69
2024/03/25 10:30:27;;;;;;;3.30;2.50;;;;;;;24.97;25.54;98396.94;5050032;28;20047;-69
2024/03/25 10:32:59;;;;;;;3.28;2.20;;;;;;;26.37;23.55;98395.75;5046943;28;20045;-69
2024/03/25 10:35:30;;;;;;;3.22;2.60;;;;;;;27.60;22.00;98384.56;5023914;28;20055;-70
2024/03/25 10:38:01;;;;;;;2.83;2.60;;;;;;;28.38;20.82;98393.53;5029407;28;20103;-69
2024/03/25 10:40:30;;;;;;;2.88;2.20;;;;;;;29.05;19.80;98394.59;5028522;28;20030;-69
2024/03/25 10:43:06;;;;;;;2.47;2.10;;;;;;;29.71;18.89;98392.00;4998760;28;20040;-69
2024/03/25 10:45:35;;;;;;;5.25;1.20;;;;;;;29.87;18.62;98409.66;5037369;28;20170;-69
2024/03/25 10:48:13;;;;;;;3.70;2.55;;;;;;;29.25;18.37;98405.13;5036815;28;20059;-69
2024/03/25 10:50:39;;;;;;;2.10;1.90;;;;;;;29.35;18.85;98402.94;5053383;28;20037;-72
2024/03/25 10:53:06;;;;;;;2.08;1.60;;;;;;;29.32;18.10;98403.56;5053553;28;20068;-70
2024/03/25 10:55:33;;;;;;;3.10;1.40;;;;;;;28.63;18.66;98401.25;5033350;28;20507;-70
2024/03/25 10:58:00;;;;;;;2.67;1.80;;;;;;;27.52;19.53;98396.94;5042089;28;20065;-69
2024/03/25 11:00:28;;;;;;;2.28;2.05;;;;;;;27.28;20.37;98398.16;5032811;28;20044;-68
2024/03/25 11:03:21;;;;;;;1.58;0.95;;;;;;;26.79;20.75;98400.44;5016812;28;20037;-70
2024/03/25 11:05:47;;;;;;;2.60;1.27;;;;;;;25.88;21.70;98397.88;5034775;28;20506;-68
2024/03/25 11:08:14;;;;;;;2.05;1.88;;;;;;;24.99;22.26;98403.69;5047547;28;20075;-72
2024/03/25 11:10:44;;;;;;;2.60;1.83;;;;;;;25.40;22.37;98396.13;5032662;28;20059;-69
2024/03/25 11:13:14;;;;;;;5.53;1.67;;;;;;;25.66;22.61;98403.78;5015439;28;20080;-69
2024/03/25 11:15:44;;;;;;;3.08;2.72;;;;;;;27.17;21.22;98399.41;5046367;28;20048;-70
2024/03/25 11:18:16;;;;;;;2.92;1.52;;;;;;;28.24;19.93;98403.66;5027388;28;20114;-68
2024/03/25 11:20:46;;;;;;;1.80;1.60;;;;;;;28.17;19.90;98396.97;5035593;28;20036;-67
2024/03/25 11:23:41;;;;;;;3.97;2.22;;;;;;;29.44;18.65;98408.50;5029255;28;20053;-70
2024/03/25 11:26:30;;;;;;;1.75;1.65;;;;;;;29.71;18.86;98410.38;5044126;28;20036;-68
2024/03/25 11:28:57;;;;;;;3.45;1.75;;;;;;;30.56;18.00;98406.16;5027844;28;20080;-70
2024/03/25 11:31:26;;;;;;;3.70;1.77;;;;;;;31.36;17.52;98399.44;5041530;28;20502;-69
2024/03/25 11:33:52;;;;;;;3.42;1.30;;;;;;;32.00;16.64;98407.47;5017261;28;20049;-70
2024/03/25 11:36:20;;;;;;;3.05;1.48;;;;;;;32.18;15.95;98397.25;5024615;28;20041;-70
2024/03/25 11:39:09;;;;;;;4.00;1.42;;;;;;;32.32;15.88;98409.63;5043557;28;20037;-68